Tachek — VXRQ — position and weather

sailwx.info

Track history (hours):
 
Tides and Currents Weather Stations Pressure Air Temp Water Temp Dewpoint Dewpoint Depression Visibility Wind Speed Wind Dir Waves Ship Positions

Tachek

Last reported at 2017-Oct-17 04:00 UTC. Time now 2017-Oct-17 04:19 UTC.
Position N 50°07' W 125°03'.

Length 50 m; draft 2.6 m.

Type: Ship. MMSI: 316001271.

Date/timePositionNaut miles runAvg speedWind from/ knotsBaromVisibWave heightAir tempDewpointWater temp
2017-Oct-17 04:00N 50°07' W 125°03'0 0.0
2017-Oct-17 03:31N 50°07' W 125°03'0 0.0
2017-Oct-17 03:01N 50°07' W 125°03'0 0.0
2017-Oct-17 02:30N 50°07' W 125°03'0 0.0
2017-Oct-17 02:00N 50°07' W 125°03'0 0.0
2017-Oct-17 01:30N 50°07' W 125°03'0 0.0
2017-Oct-17 01:00N 50°07' W 125°03'3 6.8
2017-Oct-17 00:30N 50°06' W 125°09'3 5.3
2017-Oct-17 00:00N 50°06' W 125°13'1 2.2
2017-Oct-16 23:30N 50°07' W 125°11'5 9.8
2017-Oct-16 23:00N 50°06' W 125°03'3 5.0
2017-Oct-16 22:31N 50°06' W 125°07'4 7.2
2017-Oct-16 22:00N 50°06' W 125°13'2 4.0
2017-Oct-16 21:30N 50°06' W 125°10'4 8.3
2017-Oct-16 21:00N 50°07' W 125°03'3 6.7
2017-Oct-16 20:31N 50°06' W 125°08'3 5.5
2017-Oct-16 20:00N 50°06' W 125°13'1 1.8
2017-Oct-16 19:30N 50°07' W 125°11'510.1
2017-Oct-16 19:01N 50°06' W 125°04'2 4.3
2017-Oct-16 18:30N 50°06' W 125°07'4 7.3
2017-Oct-16 18:00N 50°06' W 125°13'2 3.6
2017-Oct-16 17:31N 50°06' W 125°10'4 8.6
2017-Oct-16 17:00N 50°07' W 125°03'3 5.6
2017-Oct-16 16:30N 50°06' W 125°08'3 6.6
2017-Oct-16 16:00N 50°06' W 125°13'1 1.1
2017-Oct-16 15:31N 50°07' W 125°12'510.4
2017-Oct-16 15:00N 50°06' W 125°04'1 0.5
2017-Oct-16 14:00N 50°07' W 125°03'0 0.0
2017-Oct-16 13:30N 50°07' W 125°03'0 0.0
2017-Oct-16 13:00N 50°07' W 125°03'0 0.0
2017-Oct-16 12:30N 50°07' W 125°03'0 0.0
2017-Oct-16 12:00N 50°07' W 125°03'0 0.0
2017-Oct-16 11:30N 50°07' W 125°03'0 0.0
2017-Oct-16 11:00N 50°07' W 125°03'0 0.0
2017-Oct-16 10:30N 50°07' W 125°03'0 0.0
2017-Oct-16 10:00N 50°07' W 125°03'0 0.0
2017-Oct-16 09:30N 50°07' W 125°03'0 0.0
2017-Oct-16 09:00N 50°07' W 125°03'0 0.0
2017-Oct-16 08:30N 50°07' W 125°03'0 0.0
2017-Oct-16 08:00N 50°07' W 125°03'0 0.0
2017-Oct-16 07:30N 50°07' W 125°03'0 0.0
2017-Oct-16 07:00N 50°07' W 125°03'0 0.0
2017-Oct-16 06:30N 50°07' W 125°03'0 0.0
2017-Oct-16 06:00N 50°07' W 125°03'0 0.0
2017-Oct-16 05:30N 50°07' W 125°03'0 0.0
2017-Oct-16 05:00N 50°07' W 125°03'0 0.0
2017-Oct-16 04:30N 50°07' W 125°03'0 0.0
2017-Oct-16 04:00N 50°07' W 125°03'0 0.0
2017-Oct-16 03:31N 50°07' W 125°03'0 0.0
2017-Oct-16 03:00N 50°07' W 125°03'0 0.0
2017-Oct-16 02:30N 50°07' W 125°03'4 7.9
2017-Oct-16 02:00N 50°07' W 125°09'2 4.3
2017-Oct-16 01:30N 50°06' W 125°13'4 8.9
2017-Oct-16 01:00N 50°06' W 125°06'0 0.1
2017-Oct-16 00:30N 50°06' W 125°06'4 8.9
2017-Oct-16 00:00N 50°06' W 125°13'0 0.0
2017-Oct-15 23:30N 50°06' W 125°13'5 9.1
2017-Oct-15 23:00N 50°06' W 125°06'0 0.8
2017-Oct-15 22:30N 50°06' W 125°06'4 8.4
2017-Oct-15 22:00N 50°06' W 125°13'1 1.7
2017-Oct-15 21:30N 50°07' W 125°12'510.6
2017-Oct-15 21:01N 50°07' W 125°03'3 6.6
2017-Oct-15 20:30N 50°06' W 125°08'3 5.5
2017-Oct-15 20:00N 50°06' W 125°13'0 0.0
2017-Oct-15 19:30N 50°06' W 125°13'3 6.1
2017-Oct-15 19:00N 50°07' W 125°08'3 5.8
2017-Oct-15 18:31N 50°06' W 125°03'611.3
2017-Oct-15 18:00N 50°07' W 125°12'0 1.0
2017-Oct-15 17:30N 50°06' W 125°13'2 4.6
2017-Oct-15 17:00N 50°07' W 125°09'4 7.6
2017-Oct-15 16:30N 50°07' W 125°03'0 0.0
2017-Oct-15 16:00N 50°07' W 125°03'0 0.0
2017-Oct-15 15:30N 50°07' W 125°03'0 0.0
2017-Oct-15 15:00N 50°07' W 125°03'0 0.0
2017-Oct-15 14:00N 50°07' W 125°03'0 0.0
2017-Oct-15 13:30N 50°07' W 125°03'0 0.0
2017-Oct-15 13:00N 50°07' W 125°03'0 0.0
2017-Oct-15 12:30N 50°07' W 125°03'0 0.0
2017-Oct-15 12:00N 50°07' W 125°03'0 0.0
2017-Oct-15 11:30N 50°07' W 125°03'0 0.0
2017-Oct-15 11:00N 50°07' W 125°03'0 0.0
2017-Oct-15 10:30N 50°07' W 125°03'0 0.0
2017-Oct-15 10:00N 50°07' W 125°03'0 0.0
2017-Oct-15 09:30N 50°07' W 125°03'0 0.0
2017-Oct-15 09:00N 50°07' W 125°03'0 0.0
2017-Oct-15 08:30N 50°07' W 125°03'0 0.0
2017-Oct-15 08:00N 50°07' W 125°03'0 0.0
2017-Oct-15 07:30N 50°07' W 125°03'0 0.0
2017-Oct-15 07:00N 50°07' W 125°03'0 0.0
2017-Oct-15 06:30N 50°07' W 125°03'0 0.0
2017-Oct-15 06:00N 50°07' W 125°03'0 0.0
2017-Oct-15 05:30N 50°07' W 125°03'0 0.0
2017-Oct-15 05:00N 50°07' W 125°03'0 0.0
2017-Oct-15 04:30N 50°07' W 125°03'0 0.0
2017-Oct-15 04:00N 50°07' W 125°03'0 0.0
2017-Oct-15 03:30N 50°07' W 125°03'0 0.0
2017-Oct-15 03:00N 50°07' W 125°03'0 0.0
2017-Oct-15 02:30N 50°07' W 125°03'4 7.3
2017-Oct-15 02:00N 50°06' W 125°09'2 4.8
2017-Oct-15 01:30N 50°06' W 125°13'5 9.2
2017-Oct-15 01:00N 50°06' W 125°05'1 1.2
2017-Oct-15 00:30N 50°06' W 125°06'4 8.6
2017-Oct-15 00:00N 50°06' W 125°13'0 0.1
2017-Oct-14 23:31N 50°06' W 125°13'5 9.0
2017-Oct-14 23:00N 50°06' W 125°06'0 1.0
2017-Oct-14 22:30N 50°06' W 125°06'4 8.4
2017-Oct-14 22:00N 50°06' W 125°13'0 0.1
2017-Oct-14 21:30N 50°06' W 125°13'510.1
2017-Oct-14 21:00N 50°06' W 125°05'1 2.9
2017-Oct-14 20:31N 50°06' W 125°07'4 7.1
2017-Oct-14 20:00N 50°06' W 125°13'0 0.0
2017-Oct-14 19:30N 50°06' W 125°13'3 5.2
2017-Oct-14 19:00N 50°06' W 125°09'3 6.9
2017-Oct-14 18:30N 50°07' W 125°03'510.5
2017-Oct-14 18:00N 50°07' W 125°11'1 1.8
2017-Oct-14 17:30N 50°06' W 125°13'3 6.9
2017-Oct-14 17:00N 50°07' W 125°07'2 4.5
2017-Oct-14 16:30N 50°06' W 125°04'611.2
2017-Oct-14 16:01N 50°06' W 125°13'0 0.6
2017-Oct-14 15:30N 50°06' W 125°13'510.0
2017-Oct-14 15:00N 50°06' W 125°05'1 2.2
2017-Oct-14 14:30N 50°07' W 125°03'0 0.0
2017-Oct-14 14:00N 50°07' W 125°03'0 0.0
2017-Oct-14 13:30N 50°07' W 125°03'0 0.0
2017-Oct-14 13:00N 50°07' W 125°03'0 0.0
2017-Oct-14 12:30N 50°07' W 125°03'0 0.0
2017-Oct-14 12:00N 50°07' W 125°03'0 0.0
2017-Oct-14 11:30N 50°07' W 125°03'0 0.0
2017-Oct-14 11:00N 50°07' W 125°03'0 0.0
2017-Oct-14 10:30N 50°07' W 125°03'0 0.0
2017-Oct-14 10:00N 50°07' W 125°03'0 0.0
2017-Oct-14 09:30N 50°07' W 125°03'0 0.0
2017-Oct-14 09:00N 50°07' W 125°03'0 0.0
2017-Oct-14 08:30N 50°07' W 125°03'0 0.0
2017-Oct-14 08:00N 50°07' W 125°03'0 0.0
2017-Oct-14 07:30N 50°07' W 125°03'0 0.0
2017-Oct-14 07:00N 50°07' W 125°03'0 0.0
2017-Oct-14 06:30N 50°07' W 125°03'0 0.0
2017-Oct-14 06:00N 50°07' W 125°03'0 0.0
2017-Oct-14 05:30N 50°07' W 125°03'0 0.0
2017-Oct-14 05:00N 50°07' W 125°03'0 0.0
2017-Oct-14 04:30N 50°07' W 125°03'0 0.0
2017-Oct-14 04:00N 50°07' W 125°03'0 0.0
2017-Oct-14 03:30N 50°07' W 125°03'0 0.0
2017-Oct-14 03:00N 50°07' W 125°03'0 0.0
2017-Oct-14 02:30N 50°07' W 125°03'4 8.9
2017-Oct-14 02:00N 50°07' W 125°10'2 3.3
2017-Oct-14 01:30N 50°06' W 125°13'611.1
2017-Oct-14 01:00N 50°06' W 125°04'2 4.1
2017-Oct-14 00:30N 50°06' W 125°07'4 6.4
2017-Oct-13 23:57N 50°06' W 125°13'0 0.1
2017-Oct-13 23:30N 50°06' W 125°13'510.6
2017-Oct-13 23:00N 50°06' W 125°05'1 1.7
2017-Oct-13 22:30N 50°06' W 125°06'4 8.8
2017-Oct-13 22:00N 50°06' W 125°13'1 2.9
2017-Oct-13 21:30N 50°07' W 125°10'5 9.4
2017-Oct-13 21:00N 50°07' W 125°03'3 6.6
2017-Oct-13 20:30N 50°06' W 125°08'3 5.5
2017-Oct-13 20:00N 50°06' W 125°13'0 0.8
2017-Oct-13 19:31N 50°07' W 125°12'611.1
2017-Oct-13 19:00N 50°06' W 125°04'2 3.3
2017-Oct-13 18:30N 50°06' W 125°06'4 8.2
2017-Oct-13 18:00N 50°06' W 125°13'0 0.0
2017-Oct-13 17:30N 50°06' W 125°13'510.2
2017-Oct-13 17:00N 50°06' W 125°05'1 1.5
2017-Oct-13 16:30N 50°06' W 125°06'4 8.7
2017-Oct-13 16:00N 50°06' W 125°13'0 0.0
2017-Oct-13 15:30N 50°06' W 125°13'4 8.6
2017-Oct-13 15:00N 50°06' W 125°06'2 3.5
2017-Oct-13 14:30N 50°07' W 125°03'0 0.0
2017-Oct-13 14:00N 50°07' W 125°03'0 0.0
2017-Oct-13 13:30N 50°07' W 125°03'0 0.0
2017-Oct-13 13:00N 50°07' W 125°03'0 0.0
2017-Oct-13 12:30N 50°07' W 125°03'0 0.0
2017-Oct-13 11:57N 50°07' W 125°03'0 0.0
2017-Oct-13 11:30N 50°07' W 125°03'0 0.0
2017-Oct-13 11:00N 50°07' W 125°03'0 0.0
2017-Oct-13 10:30N 50°07' W 125°03'0 0.0
2017-Oct-13 10:00N 50°07' W 125°03'0 0.0
2017-Oct-13 09:30N 50°07' W 125°03'0 0.0
2017-Oct-13 09:00N 50°07' W 125°03'0 0.0
2017-Oct-13 08:30N 50°07' W 125°03'0 0.0
2017-Oct-13 08:00N 50°07' W 125°03'0 0.0
2017-Oct-13 07:30N 50°07' W 125°03'0 0.0
2017-Oct-13 07:00N 50°07' W 125°03'0 0.0
2017-Oct-13 06:30N 50°07' W 125°03'0 0.0
2017-Oct-13 06:00N 50°07' W 125°03'0 0.0
2017-Oct-13 05:30N 50°07' W 125°03'0 0.0
2017-Oct-13 05:00N 50°07' W 125°03'0 0.0
2017-Oct-13 04:30N 50°07' W 125°03'0 0.0
2017-Oct-13 04:00N 50°07' W 125°03'0 0.0
2017-Oct-13 03:30N 50°07' W 125°03'0 0.0
2017-Oct-13 03:00N 50°07' W 125°03'0 0.0
2017-Oct-13 02:30N 50°07' W 125°03'4 8.8
2017-Oct-13 02:00N 50°07' W 125°10'2 3.6
2017-Oct-13 01:31N 50°06' W 125°13'510.3
2017-Oct-13 01:00N 50°06' W 125°05'1 2.4
2017-Oct-13 00:30N 50°06' W 125°06'4 8.0
2017-Oct-13 00:00N 50°06' W 125°13'2 3.4
2017-Oct-12 23:30N 50°07' W 125°10'4 8.9
2017-Oct-12 23:00N 50°07' W 125°03'4 8.1
2017-Oct-12 22:30N 50°07' W 125°10'2 4.1
2017-Oct-12 22:00N 50°06' W 125°13'0 0.0
2017-Oct-12 21:30N 50°06' W 125°13'5 9.9
2017-Oct-12 21:00N 50°06' W 125°05'1 1.3
2017-Oct-12 20:30N 50°06' W 125°06'4 8.6
2017-Oct-12 20:00N 50°06' W 125°13'1 2.7
2017-Oct-12 19:30N 50°07' W 125°11'5 9.5
2017-Oct-12 19:00N 50°07' W 125°03'4 8.2
2017-Oct-12 18:30N 50°07' W 125°10'2 4.0
2017-Oct-12 18:00N 50°06' W 125°13'0 0.6
2017-Oct-12 17:31N 50°06' W 125°12'611.1
2017-Oct-12 17:00N 50°06' W 125°04'2 3.9
2017-Oct-12 16:30N 50°06' W 125°07'4 7.5
2017-Oct-12 16:00N 50°06' W 125°13'0 0.0
2017-Oct-12 15:30N 50°06' W 125°13'5 9.5
2017-Oct-12 15:00N 50°06' W 125°05'1 2.6
2017-Oct-12 14:30N 50°07' W 125°03'0 0.0
2017-Oct-12 14:00N 50°07' W 125°03'0 0.0
2017-Oct-12 13:30N 50°07' W 125°03'0 0.0
2017-Oct-12 13:00N 50°07' W 125°03'0 0.0
2017-Oct-12 12:30N 50°07' W 125°03'0 0.0
2017-Oct-12 12:00N 50°07' W 125°03'0 0.0
2017-Oct-12 11:30N 50°07' W 125°03'0 0.0
2017-Oct-12 11:00N 50°07' W 125°03'0 0.0
2017-Oct-12 10:30N 50°07' W 125°03'0 0.0
2017-Oct-12 10:00N 50°07' W 125°03'0 0.0
2017-Oct-12 09:30N 50°07' W 125°03'0 0.0
2017-Oct-12 09:00N 50°07' W 125°03'0 0.0
2017-Oct-12 08:30N 50°07' W 125°03'0 0.0
2017-Oct-12 08:00N 50°07' W 125°03'0 0.0
2017-Oct-12 07:30N 50°07' W 125°03'0 0.0
2017-Oct-12 07:00N 50°07' W 125°03'0 0.0
2017-Oct-12 06:30N 50°07' W 125°03'0 0.0
2017-Oct-12 06:00N 50°07' W 125°03'0 0.0
2017-Oct-12 05:30N 50°07' W 125°03'0 0.0
2017-Oct-12 05:00N 50°07' W 125°03'0 0.0
2017-Oct-12 04:30N 50°07' W 125°03'0 0.0
2017-Oct-12 04:00N 50°07' W 125°03'0 0.0
2017-Oct-12 03:30N 50°07' W 125°03'0 0.0
2017-Oct-12 03:00N 50°07' W 125°03'0 0.0
2017-Oct-12 02:30N 50°07' W 125°03'4 7.9
2017-Oct-12 02:00N 50°07' W 125°09'2 4.3
2017-Oct-12 01:31N 50°06' W 125°13'5 9.9
2017-Oct-12 01:00N 50°06' W 125°05'0 1.0
2017-Oct-12 00:30N 50°06' W 125°06'5 9.2
2017-Oct-12 00:00N 50°06' W 125°13'0 0.0
2017-Oct-11 23:31N 50°06' W 125°13'510.2
2017-Oct-11 23:00N 50°06' W 125°05'1 1.8
2017-Oct-11 22:30N 50°06' W 125°06'4 8.6
2017-Oct-11 22:00N 50°06' W 125°13'0 0.0
2017-Oct-11 21:31N 50°06' W 125°13'4 8.6
2017-Oct-11 21:00N 50°06' W 125°06'0 0.8
2017-Oct-11 20:30N 50°06' W 125°05'5 9.3
2017-Oct-11 20:00N 50°06' W 125°13'0 0.0
2017-Oct-11 19:30N 50°06' W 125°13'510.5
2017-Oct-11 19:00N 50°06' W 125°04'1 1.4
2017-Oct-11 18:30N 50°06' W 125°06'5 9.2
2017-Oct-11 18:00N 50°06' W 125°13'1 1.5
2017-Oct-11 17:30N 50°07' W 125°12'510.8
2017-Oct-11 17:01N 50°07' W 125°03'6 0.4
2017-Oct-11 00:00N 50°06' W 125°13'0 0.0
2017-Oct-10 23:30N 50°06' W 125°13'4 8.8
2017-Oct-10 23:00N 50°06' W 125°06'0 0.8
2017-Oct-10 22:30N 50°06' W 125°05'5 9.5
2017-Oct-10 22:00N 50°06' W 125°13'0 0.0
2017-Oct-10 21:30N 50°06' W 125°13'4 8.3
2017-Oct-10 21:00N 50°06' W 125°06'0 0.6
2017-Oct-10 20:30N 50°06' W 125°06'4 8.9
2017-Oct-10 20:00N 50°06' W 125°13'0 0.7
2017-Oct-10 19:30N 50°06' W 125°12'5 9.3
2017-Oct-10 19:01N 50°06' W 125°05'1 1.3
2017-Oct-10 18:30N 50°06' W 125°04'510.6
2017-Oct-10 18:00N 50°07' W 125°12'0 0.7
2017-Oct-10 17:30N 50°06' W 125°13'510.4
2017-Oct-10 17:00N 50°06' W 125°05'0 0.8
2017-Oct-10 16:30N 50°06' W 125°05'5 9.6
2017-Oct-10 16:00N 50°06' W 125°13'0 0.1
2017-Oct-10 15:31N 50°06' W 125°13'5 9.9
2017-Oct-10 15:00N 50°06' W 125°05'1 1.1
2017-Oct-10 13:58N 50°07' W 125°03'0 0.0
2017-Oct-10 13:25N 50°07' W 125°03'0 0.0
2017-Oct-10 12:58N 50°07' W 125°03'0 0.0
2017-Oct-10 12:28N 50°07' W 125°03'0 0.0
2017-Oct-10 11:58N 50°07' W 125°03'0 0.0
2017-Oct-10 11:28N 50°07' W 125°03'0 0.0
2017-Oct-10 10:58N 50°07' W 125°03'0 0.0
2017-Oct-10 10:28N 50°07' W 125°03'0 0.0
2017-Oct-10 09:58N 50°07' W 125°03'0 0.0
2017-Oct-10 09:28N 50°07' W 125°03'0 0.0
2017-Oct-10 08:58N 50°07' W 125°03'0 0.0
2017-Oct-10 08:28N 50°07' W 125°03'0 0.0
2017-Oct-10 07:58N 50°07' W 125°03'0 0.0
2017-Oct-10 07:28N 50°07' W 125°03'0 0.0
2017-Oct-10 06:58N 50°07' W 125°03'0 0.0
2017-Oct-10 06:28N 50°07' W 125°03'0 0.0
2017-Oct-10 05:58N 50°07' W 125°03'0 0.0
2017-Oct-10 05:28N 50°07' W 125°03'0 0.0
2017-Oct-10 04:58N 50°07' W 125°03'0 0.0
2017-Oct-10 04:28N 50°07' W 125°03'0 0.0
2017-Oct-10 03:58N 50°07' W 125°03'0 0.0
2017-Oct-10 03:28N 50°07' W 125°03'0 0.0
2017-Oct-10 02:58N 50°07' W 125°03'0 0.0
2017-Oct-10 02:28N 50°07' W 125°03'3 7.5
2017-Oct-10 02:00N 50°06' W 125°09'3 5.3
2017-Oct-10 01:30N 50°06' W 125°13'5 9.3
2017-Oct-10 01:00N 50°06' W 125°05'0 0.4
2017-Oct-10 00:30N 50°06' W 125°05'5 9.4
2017-Oct-10 00:00N 50°06' W 125°13'0 0.0
2017-Oct-09 23:30N 50°06' W 125°13'4 8.6
2017-Oct-09 23:00N 50°06' W 125°06'0 0.9
2017-Oct-09 22:30N 50°06' W 125°05'5 9.5
2017-Oct-09 22:00N 50°06' W 125°13'0 0.0
2017-Oct-09 21:30N 50°06' W 125°13'4 8.5
2017-Oct-09 21:00N 50°06' W 125°06'1 1.3
2017-Oct-09 20:30N 50°06' W 125°05'5 9.8
2017-Oct-09 20:00N 50°06' W 125°13'0 0.1
2017-Oct-09 19:30N 50°06' W 125°13'510.1
2017-Oct-09 19:00N 50°06' W 125°05'0 0.8
2017-Oct-09 18:30N 50°06' W 125°05'5 9.3
2017-Oct-09 18:00N 50°06' W 125°13'0 0.1
2017-Oct-09 17:30N 50°06' W 125°13'510.1
2017-Oct-09 17:00N 50°06' W 125°05'0 0.6
2017-Oct-09 16:30N 50°06' W 125°05'5 9.7
2017-Oct-09 16:00N 50°06' W 125°13'0 0.0
2017-Oct-09 15:30N 50°06' W 125°13'4 8.9
2017-Oct-09 15:00N 50°06' W 125°06'2 3.2
2017-Oct-09 14:30N 50°07' W 125°03'0 0.0
2017-Oct-09 14:00N 50°07' W 125°03'0 0.0
2017-Oct-09 13:30N 50°07' W 125°03'0 0.0
2017-Oct-09 13:00N 50°07' W 125°03'0 0.0
2017-Oct-09 12:30N 50°07' W 125°03'0 0.0
2017-Oct-09 12:00N 50°07' W 125°03'0 0.0
2017-Oct-09 11:30N 50°07' W 125°03'0 0.0
2017-Oct-09 11:00N 50°07' W 125°03'0 0.0
2017-Oct-09 10:30N 50°07' W 125°03'0 0.0
2017-Oct-09 10:00N 50°07' W 125°03'0 0.0
2017-Oct-09 09:30N 50°07' W 125°03'0 0.0
2017-Oct-09 09:00N 50°07' W 125°03'0 0.0
2017-Oct-09 08:30N 50°07' W 125°03'0 0.0
2017-Oct-09 08:00N 50°07' W 125°03'0 0.0
2017-Oct-09 07:30N 50°07' W 125°03'0 0.0
2017-Oct-09 07:00N 50°07' W 125°03'0 0.0
2017-Oct-09 06:30N 50°07' W 125°03'0 0.0
2017-Oct-09 06:00N 50°07' W 125°03'0 0.0
2017-Oct-09 05:30N 50°07' W 125°03'0 0.0
2017-Oct-09 05:00N 50°07' W 125°03'0 0.0
2017-Oct-09 04:30N 50°07' W 125°03'0 0.0
2017-Oct-09 04:00N 50°07' W 125°03'0 0.0
2017-Oct-09 03:30N 50°07' W 125°03'0 0.0
2017-Oct-09 03:00N 50°07' W 125°03'0 0.0
2017-Oct-09 02:30N 50°07' W 125°03'4 7.1
2017-Oct-09 02:00N 50°06' W 125°09'3 5.0
2017-Oct-09 01:31N 50°06' W 125°13'510.7
2017-Oct-09 01:00N 50°06' W 125°04'2 3.8
2017-Oct-09 00:30N 50°06' W 125°07'4 7.0
2017-Oct-09 00:00N 50°06' W 125°13'0 0.0
2017-Oct-08 23:30N 50°06' W 125°13'4 8.2
2017-Oct-08 23:00N 50°06' W 125°06'1 1.8
2017-Oct-08 22:30N 50°06' W 125°05'5 9.8
2017-Oct-08 22:00N 50°06' W 125°13'0 0.8
2017-Oct-08 21:31N 50°07' W 125°12'611.3
2017-Oct-08 21:00N 50°06' W 125°03'3 5.2
2017-Oct-08 20:30N 50°06' W 125°08'3 6.6
2017-Oct-08 20:00N 50°06' W 125°13'0 0.0
2017-Oct-08 19:30N 50°06' W 125°13'2 4.8
2017-Oct-08 19:00N 50°07' W 125°09'4 7.3
2017-Oct-08 18:30N 50°07' W 125°03'510.4
2017-Oct-08 18:00N 50°07' W 125°11'1 1.9
2017-Oct-08 17:30N 50°06' W 125°13'4 8.8
2017-Oct-08 17:00N 50°06' W 125°06'2 3.3
2017-Oct-08 16:30N 50°07' W 125°03'0 0.0
2017-Oct-08 15:59N 50°07' W 125°03'0 0.0
2017-Oct-08 15:29N 50°07' W 125°03'0 0.0
2017-Oct-08 14:59N 50°07' W 125°03'0 0.0
2017-Oct-08 14:29N 50°07' W 125°03'0 0.0
2017-Oct-08 13:59N 50°07' W 125°03'0 0.0
2017-Oct-08 13:29N 50°07' W 125°03'0 0.0
2017-Oct-08 12:59N 50°07' W 125°03'0 0.0
2017-Oct-08 12:29N 50°07' W 125°03'0 0.0
2017-Oct-08 11:59N 50°07' W 125°03'0 0.0
2017-Oct-08 11:29N 50°07' W 125°03'0 0.0
2017-Oct-08 10:59N 50°07' W 125°03'0 0.0
2017-Oct-08 10:29N 50°07' W 125°03'0 0.0
2017-Oct-08 09:59N 50°07' W 125°03'0 0.0
2017-Oct-08 09:29N 50°07' W 125°03'0 0.0
2017-Oct-08 08:59N 50°07' W 125°03'0 0.0
2017-Oct-08 08:29N 50°07' W 125°03'0 0.0
2017-Oct-08 07:59N 50°07' W 125°03'0 0.0
2017-Oct-08 07:29N 50°07' W 125°03'0 0.0
2017-Oct-08 06:59N 50°07' W 125°03'0 0.0
2017-Oct-08 06:29N 50°07' W 125°03'0 0.0
2017-Oct-08 05:59N 50°07' W 125°03'0 0.0
2017-Oct-08 05:29N 50°07' W 125°03'0 0.0
2017-Oct-08 04:59N 50°07' W 125°03'0 0.0
2017-Oct-08 04:29N 50°07' W 125°03'0 0.0
2017-Oct-08 03:59N 50°07' W 125°03'0 0.0
2017-Oct-08 03:29N 50°07' W 125°03'0 0.0
2017-Oct-08 02:59N 50°07' W 125°03'0 0.0
2017-Oct-08 02:29N 50°07' W 125°03'4 8.7
2017-Oct-08 02:00N 50°07' W 125°10'2 3.8
2017-Oct-08 01:30N 50°06' W 125°13'4 8.9
2017-Oct-08 01:00N 50°06' W 125°06'0 0.3
2017-Oct-08 00:30N 50°06' W 125°06'4 8.8
2017-Oct-08 00:00N 50°06' W 125°13'0 0.0
2017-Oct-07 23:30N 50°06' W 125°13'510.1
2017-Oct-07 23:00N 50°06' W 125°05'1 2.6
2017-Oct-07 22:30N 50°06' W 125°07'4 7.5
2017-Oct-07 22:00N 50°06' W 125°13'0 0.1
2017-Oct-07 21:31N 50°06' W 125°13'510.9
2017-Oct-07 21:00N 50°06' W 125°04'2 3.8
2017-Oct-07 20:30N 50°06' W 125°07'4 7.2
2017-Oct-07 20:00N 50°06' W 125°13'0 0.0
2017-Oct-07 19:30N 50°06' W 125°13'3 5.3
2017-Oct-07 19:00N 50°06' W 125°09'3 6.9
2017-Oct-07 18:31N 50°07' W 125°03'510.4
2017-Oct-07 18:00N 50°07' W 125°11'1 1.9
2017-Oct-07 17:30N 50°06' W 125°13'1 3.0
2017-Oct-07 17:00N 50°07' W 125°10'5 9.2
2017-Oct-07 16:30N 50°07' W 125°03'4 8.5
2017-Oct-07 16:00N 50°07' W 125°10'2 3.6
2017-Oct-07 15:30N 50°06' W 125°13'5 9.5
2017-Oct-07 15:00N 50°06' W 125°05'1 2.7
2017-Oct-07 14:30N 50°07' W 125°03'0 0.0
2017-Oct-07 14:00N 50°07' W 125°03'0 0.0
2017-Oct-07 13:30N 50°07' W 125°03'0 0.0
2017-Oct-07 13:00N 50°07' W 125°03'0 0.0
2017-Oct-07 12:30N 50°07' W 125°03'0 0.0
2017-Oct-07 12:00N 50°07' W 125°03'0 0.0
2017-Oct-07 11:30N 50°07' W 125°03'0 0.0
2017-Oct-07 11:00N 50°07' W 125°03'0 0.0
2017-Oct-07 10:30N 50°07' W 125°03'0 0.0
2017-Oct-07 10:00N 50°07' W 125°03'0 0.0
2017-Oct-07 09:27N 50°07' W 125°03'0 0.0
2017-Oct-07 09:00N 50°07' W 125°03'0 0.0
2017-Oct-07 08:30N 50°07' W 125°03'0 0.0
2017-Oct-07 08:00N 50°07' W 125°03'0 0.0
2017-Oct-07 07:30N 50°07' W 125°03'0 0.0
2017-Oct-07 07:00N 50°07' W 125°03'0 0.0
2017-Oct-07 06:30N 50°07' W 125°03'0 0.0
2017-Oct-07 06:00N 50°07' W 125°03'0 0.0
2017-Oct-07 05:30N 50°07' W 125°03'0 0.0
2017-Oct-07 05:00N 50°07' W 125°03'0 0.0
2017-Oct-07 04:30N 50°07' W 125°03'  
Track history (hours):
 
Tides and Currents Weather Stations Pressure Air Temp Water Temp Dewpoint Dewpoint Depression Visibility Wind Speed Wind Dir Waves Ship Positions

Tachek

Last reported at 2017-Oct-17 04:00 UTC. Time now 2017-Oct-17 04:19 UTC.
Position N 50°07' W 125°03'.

Length 50 m; draft 2.6 m.

Type: Ship. MMSI: 316001271.

Date/timePositionNaut miles runAvg speedWind from/ knotsBaromVisibWave heightAir tempDewpointWater temp
2017-Oct-17 04:00N 50°07' W 125°03'0 0.0
2017-Oct-17 03:31N 50°07' W 125°03'0 0.0
2017-Oct-17 03:01N 50°07' W 125°03'0 0.0
2017-Oct-17 02:30N 50°07' W 125°03'0 0.0
2017-Oct-17 02:00N 50°07' W 125°03'0 0.0
2017-Oct-17 01:30N 50°07' W 125°03'0 0.0
2017-Oct-17 01:00N 50°07' W 125°03'3 6.8
2017-Oct-17 00:30N 50°06' W 125°09'3 5.3
2017-Oct-17 00:00N 50°06' W 125°13'1 2.2
2017-Oct-16 23:30N 50°07' W 125°11'5 9.8
2017-Oct-16 23:00N 50°06' W 125°03'3 5.0
2017-Oct-16 22:31N 50°06' W 125°07'4 7.2
2017-Oct-16 22:00N 50°06' W 125°13'2 4.0
2017-Oct-16 21:30N 50°06' W 125°10'4 8.3
2017-Oct-16 21:00N 50°07' W 125°03'3 6.7
2017-Oct-16 20:31N 50°06' W 125°08'3 5.5
2017-Oct-16 20:00N 50°06' W 125°13'1 1.8
2017-Oct-16 19:30N 50°07' W 125°11'510.1
2017-Oct-16 19:01N 50°06' W 125°04'2 4.3
2017-Oct-16 18:30N 50°06' W 125°07'4 7.3
2017-Oct-16 18:00N 50°06' W 125°13'2 3.6
2017-Oct-16 17:31N 50°06' W 125°10'4 8.6
2017-Oct-16 17:00N 50°07' W 125°03'3 5.6
2017-Oct-16 16:30N 50°06' W 125°08'3 6.6
2017-Oct-16 16:00N 50°06' W 125°13'1 1.1
2017-Oct-16 15:31N 50°07' W 125°12'510.4
2017-Oct-16 15:00N 50°06' W 125°04'1 0.5
2017-Oct-16 14:00N 50°07' W 125°03'0 0.0
2017-Oct-16 13:30N 50°07' W 125°03'0 0.0
2017-Oct-16 13:00N 50°07' W 125°03'0 0.0
2017-Oct-16 12:30N 50°07' W 125°03'0 0.0
2017-Oct-16 12:00N 50°07' W 125°03'0 0.0
2017-Oct-16 11:30N 50°07' W 125°03'0 0.0
2017-Oct-16 11:00N 50°07' W 125°03'0 0.0
2017-Oct-16 10:30N 50°07' W 125°03'0 0.0
2017-Oct-16 10:00N 50°07' W 125°03'0 0.0
2017-Oct-16 09:30N 50°07' W 125°03'0 0.0
2017-Oct-16 09:00N 50°07' W 125°03'0 0.0
2017-Oct-16 08:30N 50°07' W 125°03'0 0.0
2017-Oct-16 08:00N 50°07' W 125°03'0 0.0
2017-Oct-16 07:30N 50°07' W 125°03'0 0.0
2017-Oct-16 07:00N 50°07' W 125°03'0 0.0
2017-Oct-16 06:30N 50°07' W 125°03'0 0.0
2017-Oct-16 06:00N 50°07' W 125°03'0 0.0
2017-Oct-16 05:30N 50°07' W 125°03'0 0.0
2017-Oct-16 05:00N 50°07' W 125°03'0 0.0
2017-Oct-16 04:30N 50°07' W 125°03'0 0.0
2017-Oct-16 04:00N 50°07' W 125°03'0 0.0
2017-Oct-16 03:31N 50°07' W 125°03'0 0.0
2017-Oct-16 03:00N 50°07' W 125°03'0 0.0
2017-Oct-16 02:30N 50°07' W 125°03'4 7.9
2017-Oct-16 02:00N 50°07' W 125°09'2 4.3
2017-Oct-16 01:30N 50°06' W 125°13'4 8.9
2017-Oct-16 01:00N 50°06' W 125°06'0 0.1
2017-Oct-16 00:30N 50°06' W 125°06'4 8.9
2017-Oct-16 00:00N 50°06' W 125°13'0 0.0
2017-Oct-15 23:30N 50°06' W 125°13'5 9.1
2017-Oct-15 23:00N 50°06' W 125°06'0 0.8
2017-Oct-15 22:30N 50°06' W 125°06'4 8.4
2017-Oct-15 22:00N 50°06' W 125°13'1 1.7
2017-Oct-15 21:30N 50°07' W 125°12'510.6
2017-Oct-15 21:01N 50°07' W 125°03'3 6.6
2017-Oct-15 20:30N 50°06' W 125°08'3 5.5
2017-Oct-15 20:00N 50°06' W 125°13'0 0.0
2017-Oct-15 19:30N 50°06' W 125°13'3 6.1
2017-Oct-15 19:00N 50°07' W 125°08'3 5.8
2017-Oct-15 18:31N 50°06' W 125°03'611.3
2017-Oct-15 18:00N 50°07' W 125°12'0 1.0
2017-Oct-15 17:30N 50°06' W 125°13'2 4.6
2017-Oct-15 17:00N 50°07' W 125°09'4 7.6
2017-Oct-15 16:30N 50°07' W 125°03'0 0.0
2017-Oct-15 16:00N 50°07' W 125°03'0 0.0
2017-Oct-15 15:30N 50°07' W 125°03'0 0.0
2017-Oct-15 15:00N 50°07' W 125°03'0 0.0
2017-Oct-15 14:00N 50°07' W 125°03'0 0.0
2017-Oct-15 13:30N 50°07' W 125°03'0 0.0
2017-Oct-15 13:00N 50°07' W 125°03'0 0.0
2017-Oct-15 12:30N 50°07' W 125°03'0 0.0
2017-Oct-15 12:00N 50°07' W 125°03'0 0.0
2017-Oct-15 11:30N 50°07' W 125°03'0 0.0
2017-Oct-15 11:00N 50°07' W 125°03'0 0.0
2017-Oct-15 10:30N 50°07' W 125°03'0 0.0
2017-Oct-15 10:00N 50°07' W 125°03'0 0.0
2017-Oct-15 09:30N 50°07' W 125°03'0 0.0
2017-Oct-15 09:00N 50°07' W 125°03'0 0.0
2017-Oct-15 08:30N 50°07' W 125°03'0 0.0
2017-Oct-15 08:00N 50°07' W 125°03'0 0.0
2017-Oct-15 07:30N 50°07' W 125°03'0 0.0
2017-Oct-15 07:00N 50°07' W 125°03'0 0.0
2017-Oct-15 06:30N 50°07' W 125°03'0 0.0
2017-Oct-15 06:00N 50°07' W 125°03'0 0.0
2017-Oct-15 05:30N 50°07' W 125°03'0 0.0
2017-Oct-15 05:00N 50°07' W 125°03'0 0.0
2017-Oct-15 04:30N 50°07' W 125°03'0 0.0
2017-Oct-15 04:00N 50°07' W 125°03'0 0.0
2017-Oct-15 03:30N 50°07' W 125°03'0 0.0
2017-Oct-15 03:00N 50°07' W 125°03'0 0.0
2017-Oct-15 02:30N 50°07' W 125°03'4 7.3
2017-Oct-15 02:00N 50°06' W 125°09'2 4.8
2017-Oct-15 01:30N 50°06' W 125°13'5 9.2
2017-Oct-15 01:00N 50°06' W 125°05'1 1.2
2017-Oct-15 00:30N 50°06' W 125°06'4 8.6
2017-Oct-15 00:00N 50°06' W 125°13'0 0.1
2017-Oct-14 23:31N 50°06' W 125°13'5 9.0
2017-Oct-14 23:00N 50°06' W 125°06'0 1.0
2017-Oct-14 22:30N 50°06' W 125°06'4 8.4
2017-Oct-14 22:00N 50°06' W 125°13'0 0.1
2017-Oct-14 21:30N 50°06' W 125°13'510.1
2017-Oct-14 21:00N 50°06' W 125°05'1 2.9
2017-Oct-14 20:31N 50°06' W 125°07'4 7.1
2017-Oct-14 20:00N 50°06' W 125°13'0 0.0
2017-Oct-14 19:30N 50°06' W 125°13'3 5.2
2017-Oct-14 19:00N 50°06' W 125°09'3 6.9
2017-Oct-14 18:30N 50°07' W 125°03'510.5
2017-Oct-14 18:00N 50°07' W 125°11'1 1.8
2017-Oct-14 17:30N 50°06' W 125°13'3 6.9
2017-Oct-14 17:00N 50°07' W 125°07'2 4.5
2017-Oct-14 16:30N 50°06' W 125°04'611.2
2017-Oct-14 16:01N 50°06' W 125°13'0 0.6
2017-Oct-14 15:30N 50°06' W 125°13'510.0
2017-Oct-14 15:00N 50°06' W 125°05'1 2.2
2017-Oct-14 14:30N 50°07' W 125°03'0 0.0
2017-Oct-14 14:00N 50°07' W 125°03'0 0.0
2017-Oct-14 13:30N 50°07' W 125°03'0 0.0
2017-Oct-14 13:00N 50°07' W 125°03'0 0.0
2017-Oct-14 12:30N 50°07' W 125°03'0 0.0
2017-Oct-14 12:00N 50°07' W 125°03'0 0.0
2017-Oct-14 11:30N 50°07' W 125°03'0 0.0
2017-Oct-14 11:00N 50°07' W 125°03'0 0.0
2017-Oct-14 10:30N 50°07' W 125°03'0 0.0
2017-Oct-14 10:00N 50°07' W 125°03'0 0.0
2017-Oct-14 09:30N 50°07' W 125°03'0 0.0
2017-Oct-14 09:00N 50°07' W 125°03'0 0.0
2017-Oct-14 08:30N 50°07' W 125°03'0 0.0
2017-Oct-14 08:00N 50°07' W 125°03'0 0.0
2017-Oct-14 07:30N 50°07' W 125°03'0 0.0
2017-Oct-14 07:00N 50°07' W 125°03'0 0.0
2017-Oct-14 06:30N 50°07' W 125°03'0 0.0
2017-Oct-14 06:00N 50°07' W 125°03'0 0.0
2017-Oct-14 05:30N 50°07' W 125°03'0 0.0
2017-Oct-14 05:00N 50°07' W 125°03'0 0.0
2017-Oct-14 04:30N 50°07' W 125°03'0 0.0
2017-Oct-14 04:00N 50°07' W 125°03'0 0.0
2017-Oct-14 03:30N 50°07' W 125°03'0 0.0
2017-Oct-14 03:00N 50°07' W 125°03'0 0.0
2017-Oct-14 02:30N 50°07' W 125°03'4 8.9
2017-Oct-14 02:00N 50°07' W 125°10'2 3.3
2017-Oct-14 01:30N 50°06' W 125°13'611.1
2017-Oct-14 01:00N 50°06' W 125°04'2 4.1
2017-Oct-14 00:30N 50°06' W 125°07'4 6.4
2017-Oct-13 23:57N 50°06' W 125°13'0 0.1
2017-Oct-13 23:30N 50°06' W 125°13'510.6
2017-Oct-13 23:00N 50°06' W 125°05'1 1.7
2017-Oct-13 22:30N 50°06' W 125°06'4 8.8
2017-Oct-13 22:00N 50°06' W 125°13'1 2.9
2017-Oct-13 21:30N 50°07' W 125°10'5 9.4
2017-Oct-13 21:00N 50°07' W 125°03'3 6.6
2017-Oct-13 20:30N 50°06' W 125°08'3 5.5
2017-Oct-13 20:00N 50°06' W 125°13'0 0.8
2017-Oct-13 19:31N 50°07' W 125°12'611.1
2017-Oct-13 19:00N 50°06' W 125°04'2 3.3
2017-Oct-13 18:30N 50°06' W 125°06'4 8.2
2017-Oct-13 18:00N 50°06' W 125°13'0 0.0
2017-Oct-13 17:30N 50°06' W 125°13'510.2
2017-Oct-13 17:00N 50°06' W 125°05'1 1.5
2017-Oct-13 16:30N 50°06' W 125°06'4 8.7
2017-Oct-13 16:00N 50°06' W 125°13'0 0.0
2017-Oct-13 15:30N 50°06' W 125°13'4 8.6
2017-Oct-13 15:00N 50°06' W 125°06'2 3.5
2017-Oct-13 14:30N 50°07' W 125°03'0 0.0
2017-Oct-13 14:00N 50°07' W 125°03'0 0.0
2017-Oct-13 13:30N 50°07' W 125°03'0 0.0
2017-Oct-13 13:00N 50°07' W 125°03'0 0.0
2017-Oct-13 12:30N 50°07' W 125°03'0 0.0
2017-Oct-13 11:57N 50°07' W 125°03'0 0.0
2017-Oct-13 11:30N 50°07' W 125°03'0 0.0
2017-Oct-13 11:00N 50°07' W 125°03'0 0.0
2017-Oct-13 10:30N 50°07' W 125°03'0 0.0
2017-Oct-13 10:00N 50°07' W 125°03'0 0.0
2017-Oct-13 09:30N 50°07' W 125°03'0 0.0
2017-Oct-13 09:00N 50°07' W 125°03'0 0.0
2017-Oct-13 08:30N 50°07' W 125°03'0 0.0
2017-Oct-13 08:00N 50°07' W 125°03'0 0.0
2017-Oct-13 07:30N 50°07' W 125°03'0 0.0
2017-Oct-13 07:00N 50°07' W 125°03'0 0.0
2017-Oct-13 06:30N 50°07' W 125°03'0 0.0
2017-Oct-13 06:00N 50°07' W 125°03'0 0.0
2017-Oct-13 05:30N 50°07' W 125°03'0 0.0
2017-Oct-13 05:00N 50°07' W 125°03'0 0.0
2017-Oct-13 04:30N 50°07' W 125°03'0 0.0
2017-Oct-13 04:00N 50°07' W 125°03'0 0.0
2017-Oct-13 03:30N 50°07' W 125°03'0 0.0
2017-Oct-13 03:00N 50°07' W 125°03'0 0.0
2017-Oct-13 02:30N 50°07' W 125°03'4 8.8
2017-Oct-13 02:00N 50°07' W 125°10'2 3.6
2017-Oct-13 01:31N 50°06' W 125°13'510.3
2017-Oct-13 01:00N 50°06' W 125°05'1 2.4
2017-Oct-13 00:30N 50°06' W 125°06'4 8.0
2017-Oct-13 00:00N 50°06' W 125°13'2 3.4
2017-Oct-12 23:30N 50°07' W 125°10'4 8.9
2017-Oct-12 23:00N 50°07' W 125°03'4 8.1
2017-Oct-12 22:30N 50°07' W 125°10'2 4.1
2017-Oct-12 22:00N 50°06' W 125°13'0 0.0
2017-Oct-12 21:30N 50°06' W 125°13'5 9.9
2017-Oct-12 21:00N 50°06' W 125°05'1 1.3
2017-Oct-12 20:30N 50°06' W 125°06'4 8.6
2017-Oct-12 20:00N 50°06' W 125°13'1 2.7
2017-Oct-12 19:30N 50°07' W 125°11'5 9.5
2017-Oct-12 19:00N 50°07' W 125°03'4 8.2
2017-Oct-12 18:30N 50°07' W 125°10'2 4.0
2017-Oct-12 18:00N 50°06' W 125°13'0 0.6
2017-Oct-12 17:31N 50°06' W 125°12'611.1
2017-Oct-12 17:00N 50°06' W 125°04'2 3.9
2017-Oct-12 16:30N 50°06' W 125°07'4 7.5
2017-Oct-12 16:00N 50°06' W 125°13'0 0.0
2017-Oct-12 15:30N 50°06' W 125°13'5 9.5
2017-Oct-12 15:00N 50°06' W 125°05'1 2.6
2017-Oct-12 14:30N 50°07' W 125°03'0 0.0
2017-Oct-12 14:00N 50°07' W 125°03'0 0.0
2017-Oct-12 13:30N 50°07' W 125°03'0 0.0
2017-Oct-12 13:00N 50°07' W 125°03'0 0.0
2017-Oct-12 12:30N 50°07' W 125°03'0 0.0
2017-Oct-12 12:00N 50°07' W 125°03'0 0.0
2017-Oct-12 11:30N 50°07' W 125°03'0 0.0
2017-Oct-12 11:00N 50°07' W 125°03'0 0.0
2017-Oct-12 10:30N 50°07' W 125°03'0 0.0
2017-Oct-12 10:00N 50°07' W 125°03'0 0.0
2017-Oct-12 09:30N 50°07' W 125°03'0 0.0
2017-Oct-12 09:00N 50°07' W 125°03'0 0.0
2017-Oct-12 08:30N 50°07' W 125°03'0 0.0
2017-Oct-12 08:00N 50°07' W 125°03'0 0.0
2017-Oct-12 07:30N 50°07' W 125°03'0 0.0
2017-Oct-12 07:00N 50°07' W 125°03'0 0.0
2017-Oct-12 06:30N 50°07' W 125°03'0 0.0
2017-Oct-12 06:00N 50°07' W 125°03'0 0.0
2017-Oct-12 05:30N 50°07' W 125°03'0 0.0
2017-Oct-12 05:00N 50°07' W 125°03'0 0.0
2017-Oct-12 04:30N 50°07' W 125°03'0 0.0
2017-Oct-12 04:00N 50°07' W 125°03'0 0.0
2017-Oct-12 03:30N 50°07' W 125°03'0 0.0
2017-Oct-12 03:00N 50°07' W 125°03'0 0.0
2017-Oct-12 02:30N 50°07' W 125°03'4 7.9
2017-Oct-12 02:00N 50°07' W 125°09'2 4.3
2017-Oct-12 01:31N 50°06' W 125°13'5 9.9
2017-Oct-12 01:00N 50°06' W 125°05'0 1.0
2017-Oct-12 00:30N 50°06' W 125°06'5 9.2
2017-Oct-12 00:00N 50°06' W 125°13'0 0.0
2017-Oct-11 23:31N 50°06' W 125°13'510.2
2017-Oct-11 23:00N 50°06' W 125°05'1 1.8
2017-Oct-11 22:30N 50°06' W 125°06'4 8.6
2017-Oct-11 22:00N 50°06' W 125°13'0 0.0
2017-Oct-11 21:31N 50°06' W 125°13'4 8.6
2017-Oct-11 21:00N 50°06' W 125°06'0 0.8
2017-Oct-11 20:30N 50°06' W 125°05'5 9.3
2017-Oct-11 20:00N 50°06' W 125°13'0 0.0
2017-Oct-11 19:30N 50°06' W 125°13'510.5
2017-Oct-11 19:00N 50°06' W 125°04'1 1.4
2017-Oct-11 18:30N 50°06' W 125°06'5 9.2
2017-Oct-11 18:00N 50°06' W 125°13'1 1.5
2017-Oct-11 17:30N 50°07' W 125°12'510.8
2017-Oct-11 17:01N 50°07' W 125°03'6 0.4
2017-Oct-11 00:00N 50°06' W 125°13'0 0.0
2017-Oct-10 23:30N 50°06' W 125°13'4 8.8
2017-Oct-10 23:00N 50°06' W 125°06'0 0.8
2017-Oct-10 22:30N 50°06' W 125°05'5 9.5
2017-Oct-10 22:00N 50°06' W 125°13'0 0.0
2017-Oct-10 21:30N 50°06' W 125°13'4 8.3
2017-Oct-10 21:00N 50°06' W 125°06'0 0.6
2017-Oct-10 20:30N 50°06' W 125°06'4 8.9
2017-Oct-10 20:00N 50°06' W 125°13'0 0.7
2017-Oct-10 19:30N 50°06' W 125°12'5 9.3
2017-Oct-10 19:01N 50°06' W 125°05'1 1.3
2017-Oct-10 18:30N 50°06' W 125°04'510.6
2017-Oct-10 18:00N 50°07' W 125°12'0 0.7
2017-Oct-10 17:30N 50°06' W 125°13'510.4
2017-Oct-10 17:00N 50°06' W 125°05'0 0.8
2017-Oct-10 16:30N 50°06' W 125°05'5 9.6
2017-Oct-10 16:00N 50°06' W 125°13'0 0.1
2017-Oct-10 15:31N 50°06' W 125°13'5 9.9
2017-Oct-10 15:00N 50°06' W 125°05'1 1.1
2017-Oct-10 13:58N 50°07' W 125°03'0 0.0
2017-Oct-10 13:25N 50°07' W 125°03'0 0.0
2017-Oct-10 12:58N 50°07' W 125°03'0 0.0
2017-Oct-10 12:28N 50°07' W 125°03'0 0.0
2017-Oct-10 11:58N 50°07' W 125°03'0 0.0
2017-Oct-10 11:28N 50°07' W 125°03'0 0.0
2017-Oct-10 10:58N 50°07' W 125°03'0 0.0
2017-Oct-10 10:28N 50°07' W 125°03'0 0.0
2017-Oct-10 09:58N 50°07' W 125°03'0 0.0
2017-Oct-10 09:28N 50°07' W 125°03'0 0.0
2017-Oct-10 08:58N 50°07' W 125°03'0 0.0
2017-Oct-10 08:28N 50°07' W 125°03'0 0.0
2017-Oct-10 07:58N 50°07' W 125°03'0 0.0
2017-Oct-10 07:28N 50°07' W 125°03'0 0.0
2017-Oct-10 06:58N 50°07' W 125°03'0 0.0
2017-Oct-10 06:28N 50°07' W 125°03'0 0.0
2017-Oct-10 05:58N 50°07' W 125°03'0 0.0
2017-Oct-10 05:28N 50°07' W 125°03'0 0.0
2017-Oct-10 04:58N 50°07' W 125°03'0 0.0
2017-Oct-10 04:28N 50°07' W 125°03'0 0.0
2017-Oct-10 03:58N 50°07' W 125°03'0 0.0
2017-Oct-10 03:28N 50°07' W 125°03'0 0.0
2017-Oct-10 02:58N 50°07' W 125°03'0 0.0
2017-Oct-10 02:28N 50°07' W 125°03'3 7.5
2017-Oct-10 02:00N 50°06' W 125°09'3 5.3
2017-Oct-10 01:30N 50°06' W 125°13'5 9.3
2017-Oct-10 01:00N 50°06' W 125°05'0 0.4
2017-Oct-10 00:30N 50°06' W 125°05'5 9.4
2017-Oct-10 00:00N 50°06' W 125°13'0 0.0
2017-Oct-09 23:30N 50°06' W 125°13'4 8.6
2017-Oct-09 23:00N 50°06' W 125°06'0 0.9
2017-Oct-09 22:30N 50°06' W 125°05'5 9.5
2017-Oct-09 22:00N 50°06' W 125°13'0 0.0
2017-Oct-09 21:30N 50°06' W 125°13'4 8.5
2017-Oct-09 21:00N 50°06' W 125°06'1 1.3
2017-Oct-09 20:30N 50°06' W 125°05'5 9.8
2017-Oct-09 20:00N 50°06' W 125°13'0 0.1
2017-Oct-09 19:30N 50°06' W 125°13'510.1
2017-Oct-09 19:00N 50°06' W 125°05'0 0.8
2017-Oct-09 18:30N 50°06' W 125°05'5 9.3
2017-Oct-09 18:00N 50°06' W 125°13'0 0.1
2017-Oct-09 17:30N 50°06' W 125°13'510.1
2017-Oct-09 17:00N 50°06' W 125°05'0 0.6
2017-Oct-09 16:30N 50°06' W 125°05'5 9.7
2017-Oct-09 16:00N 50°06' W 125°13'0 0.0
2017-Oct-09 15:30N 50°06' W 125°13'4 8.9
2017-Oct-09 15:00N 50°06' W 125°06'2 3.2
2017-Oct-09 14:30N 50°07' W 125°03'0 0.0
2017-Oct-09 14:00N 50°07' W 125°03'0 0.0
2017-Oct-09 13:30N 50°07' W 125°03'0 0.0
2017-Oct-09 13:00N 50°07' W 125°03'0 0.0
2017-Oct-09 12:30N 50°07' W 125°03'0 0.0
2017-Oct-09 12:00N 50°07' W 125°03'0 0.0
2017-Oct-09 11:30N 50°07' W 125°03'0 0.0
2017-Oct-09 11:00N 50°07' W 125°03'0 0.0
2017-Oct-09 10:30N 50°07' W 125°03'0 0.0
2017-Oct-09 10:00N 50°07' W 125°03'0 0.0
2017-Oct-09 09:30N 50°07' W 125°03'0 0.0
2017-Oct-09 09:00N 50°07' W 125°03'0 0.0
2017-Oct-09 08:30N 50°07' W 125°03'0 0.0
2017-Oct-09 08:00N 50°07' W 125°03'0 0.0
2017-Oct-09 07:30N 50°07' W 125°03'0 0.0
2017-Oct-09 07:00N 50°07' W 125°03'0 0.0
2017-Oct-09 06:30N 50°07' W 125°03'0 0.0
2017-Oct-09 06:00N 50°07' W 125°03'0 0.0
2017-Oct-09 05:30N 50°07' W 125°03'0 0.0
2017-Oct-09 05:00N 50°07' W 125°03'0 0.0
2017-Oct-09 04:30N 50°07' W 125°03'0 0.0
2017-Oct-09 04:00N 50°07' W 125°03'0 0.0
2017-Oct-09 03:30N 50°07' W 125°03'0 0.0
2017-Oct-09 03:00N 50°07' W 125°03'0 0.0
2017-Oct-09 02:30N 50°07' W 125°03'4 7.1
2017-Oct-09 02:00N 50°06' W 125°09'3 5.0
2017-Oct-09 01:31N 50°06' W 125°13'510.7
2017-Oct-09 01:00N 50°06' W 125°04'2 3.8
2017-Oct-09 00:30N 50°06' W 125°07'4 7.0
2017-Oct-09 00:00N 50°06' W 125°13'0 0.0
2017-Oct-08 23:30N 50°06' W 125°13'4 8.2
2017-Oct-08 23:00N 50°06' W 125°06'1 1.8
2017-Oct-08 22:30N 50°06' W 125°05'5 9.8
2017-Oct-08 22:00N 50°06' W 125°13'0 0.8
2017-Oct-08 21:31N 50°07' W 125°12'611.3
2017-Oct-08 21:00N 50°06' W 125°03'3 5.2
2017-Oct-08 20:30N 50°06' W 125°08'3 6.6
2017-Oct-08 20:00N 50°06' W 125°13'0 0.0
2017-Oct-08 19:30N 50°06' W 125°13'2 4.8
2017-Oct-08 19:00N 50°07' W 125°09'4 7.3
2017-Oct-08 18:30N 50°07' W 125°03'510.4
2017-Oct-08 18:00N 50°07' W 125°11'1 1.9
2017-Oct-08 17:30N 50°06' W 125°13'4 8.8
2017-Oct-08 17:00N 50°06' W 125°06'2 3.3
2017-Oct-08 16:30N 50°07' W 125°03'0 0.0
2017-Oct-08 15:59N 50°07' W 125°03'0 0.0
2017-Oct-08 15:29N 50°07' W 125°03'0 0.0
2017-Oct-08 14:59N 50°07' W 125°03'0 0.0
2017-Oct-08 14:29N 50°07' W 125°03'0 0.0
2017-Oct-08 13:59N 50°07' W 125°03'0 0.0
2017-Oct-08 13:29N 50°07' W 125°03'0 0.0
2017-Oct-08 12:59N 50°07' W 125°03'0 0.0
2017-Oct-08 12:29N 50°07' W 125°03'0 0.0
2017-Oct-08 11:59N 50°07' W 125°03'0 0.0
2017-Oct-08 11:29N 50°07' W 125°03'0 0.0
2017-Oct-08 10:59N 50°07' W 125°03'0 0.0
2017-Oct-08 10:29N 50°07' W 125°03'0 0.0
2017-Oct-08 09:59N 50°07' W 125°03'0 0.0
2017-Oct-08 09:29N 50°07' W 125°03'0 0.0
2017-Oct-08 08:59N 50°07' W 125°03'0 0.0
2017-Oct-08 08:29N 50°07' W 125°03'0 0.0
2017-Oct-08 07:59N 50°07' W 125°03'0 0.0
2017-Oct-08 07:29N 50°07' W 125°03'0 0.0
2017-Oct-08 06:59N 50°07' W 125°03'0 0.0
2017-Oct-08 06:29N 50°07' W 125°03'0 0.0
2017-Oct-08 05:59N 50°07' W 125°03'0 0.0
2017-Oct-08 05:29N 50°07' W 125°03'0 0.0
2017-Oct-08 04:59N 50°07' W 125°03'0 0.0
2017-Oct-08 04:29N 50°07' W 125°03'0 0.0
2017-Oct-08 03:59N 50°07' W 125°03'0 0.0
2017-Oct-08 03:29N 50°07' W 125°03'0 0.0
2017-Oct-08 02:59N 50°07' W 125°03'0 0.0
2017-Oct-08 02:29N 50°07' W 125°03'4 8.7
2017-Oct-08 02:00N 50°07' W 125°10'2 3.8
2017-Oct-08 01:30N 50°06' W 125°13'4 8.9
2017-Oct-08 01:00N 50°06' W 125°06'0 0.3
2017-Oct-08 00:30N 50°06' W 125°06'4 8.8
2017-Oct-08 00:00N 50°06' W 125°13'0 0.0
2017-Oct-07 23:30N 50°06' W 125°13'510.1
2017-Oct-07 23:00N 50°06' W 125°05'1 2.6
2017-Oct-07 22:30N 50°06' W 125°07'4 7.5
2017-Oct-07 22:00N 50°06' W 125°13'0 0.1
2017-Oct-07 21:31N 50°06' W 125°13'510.9
2017-Oct-07 21:00N 50°06' W 125°04'2 3.8
2017-Oct-07 20:30N 50°06' W 125°07'4 7.2
2017-Oct-07 20:00N 50°06' W 125°13'0 0.0
2017-Oct-07 19:30N 50°06' W 125°13'3 5.3
2017-Oct-07 19:00N 50°06' W 125°09'3 6.9
2017-Oct-07 18:31N 50°07' W 125°03'510.4
2017-Oct-07 18:00N 50°07' W 125°11'1 1.9
2017-Oct-07 17:30N 50°06' W 125°13'1 3.0
2017-Oct-07 17:00N 50°07' W 125°10'5 9.2
2017-Oct-07 16:30N 50°07' W 125°03'4 8.5
2017-Oct-07 16:00N 50°07' W 125°10'2 3.6
2017-Oct-07 15:30N 50°06' W 125°13'5 9.5
2017-Oct-07 15:00N 50°06' W 125°05'1 2.7
2017-Oct-07 14:30N 50°07' W 125°03'0 0.0
2017-Oct-07 14:00N 50°07' W 125°03'0 0.0
2017-Oct-07 13:30N 50°07' W 125°03'0 0.0
2017-Oct-07 13:00N 50°07' W 125°03'0 0.0
2017-Oct-07 12:30N 50°07' W 125°03'0 0.0
2017-Oct-07 12:00N 50°07' W 125°03'0 0.0
2017-Oct-07 11:30N 50°07' W 125°03'0 0.0
2017-Oct-07 11:00N 50°07' W 125°03'0 0.0
2017-Oct-07 10:30N 50°07' W 125°03'0 0.0
2017-Oct-07 10:00N 50°07' W 125°03'0 0.0
2017-Oct-07 09:27N 50°07' W 125°03'0 0.0
2017-Oct-07 09:00N 50°07' W 125°03'0 0.0
2017-Oct-07 08:30N 50°07' W 125°03'0 0.0
2017-Oct-07 08:00N 50°07' W 125°03'0 0.0
2017-Oct-07 07:30N 50°07' W 125°03'0 0.0
2017-Oct-07 07:00N 50°07' W 125°03'0 0.0
2017-Oct-07 06:30N 50°07' W 125°03'0 0.0
2017-Oct-07 06:00N 50°07' W 125°03'0 0.0
2017-Oct-07 05:30N 50°07' W 125°03'0 0.0
2017-Oct-07 05:00N 50°07' W 125°03'0 0.0
2017-Oct-07 04:30N 50°07' W 125°03'  

Dump ship's entire track history